createdAt,value
2019-01-04T00:00:34.633Z,19.80
2019-01-04T00:01:36.689Z,22.40
2019-01-04T00:02:34.535Z,22.40
2019-01-04T00:03:34.521Z,24.20
2019-01-04T00:04:34.477Z,24.90
2019-01-04T00:05:34.529Z,22.50
2019-01-04T00:06:34.440Z,20.40
2019-01-04T00:07:35.441Z,26.40
2019-01-04T00:08:34.351Z,24.60
2019-01-04T00:09:34.365Z,20.80
2019-01-04T00:10:34.286Z,22.60
2019-01-04T00:11:34.245Z,22.70
2019-01-04T00:12:35.305Z,29.00
2019-01-04T00:13:34.199Z,20.10
2019-01-04T00:14:34.268Z,21.10
2019-01-04T00:15:34.126Z,23.20
2019-01-04T00:16:34.190Z,20.20
2019-01-04T00:17:34.042Z,24.20
2019-01-04T00:18:34.081Z,23.20
2019-01-04T00:19:33.973Z,32.10
2019-01-04T00:20:33.995Z,27.80
2019-01-04T00:21:33.912Z,25.30
2019-01-04T00:22:34.929Z,22.40
2019-01-04T00:23:33.853Z,22.00
2019-01-04T00:24:33.811Z,20.20
2019-01-04T00:25:33.790Z,22.20
2019-01-04T00:26:33.820Z,24.80
2019-01-04T00:27:33.708Z,24.50
2019-01-04T00:28:33.743Z,22.20
2019-01-04T00:29:33.646Z,26.50
2019-01-04T00:30:33.680Z,24.00
2019-01-04T00:31:33.591Z,27.30
2019-01-04T00:32:33.701Z,23.70
2019-01-04T00:33:33.527Z,22.60
2019-01-04T00:34:33.590Z,25.60
2019-01-04T00:35:33.933Z,19.90
2019-01-04T00:36:33.502Z,24.30
2019-01-04T00:37:33.420Z,27.30
2019-01-04T00:38:33.403Z,22.90
2019-01-04T00:39:33.325Z,26.10
2019-01-04T00:40:33.414Z,22.40
2019-01-04T00:41:33.270Z,26.90
2019-01-04T00:42:33.322Z,26.60
2019-01-04T00:43:33.202Z,22.70
2019-01-04T00:44:33.190Z,22.60
2019-01-04T00:45:33.129Z,30.00
2019-01-04T00:46:34.183Z,29.70
2019-01-04T00:47:33.100Z,24.60
2019-01-04T00:48:33.037Z,27.70
2019-01-04T00:49:33.005Z,28.00
2019-01-04T00:50:32.975Z,30.60
2019-01-04T00:51:32.975Z,34.40
2019-01-04T00:52:32.942Z,26.10
2019-01-04T00:53:32.980Z,29.10
2019-01-04T00:54:32.838Z,30.50
2019-01-04T00:55:32.943Z,33.60
2019-01-04T00:56:32.794Z,31.90
2019-01-04T00:57:32.810Z,27.90
2019-01-04T00:58:32.715Z,28.10
2019-01-04T00:59:32.806Z,33.90
2019-01-04T01:00:32.667Z,31.80
2019-01-04T01:01:39.258Z,30.90
2019-01-04T01:02:32.609Z,36.70
2019-01-04T01:03:40.294Z,27.30
2019-01-04T01:04:32.524Z,30.60
2019-01-04T01:05:33.575Z,28.90
2019-01-04T01:06:32.468Z,28.60
2019-01-04T01:07:32.567Z,28.10
2019-01-04T01:08:32.407Z,30.50
2019-01-04T01:09:32.387Z,27.10
2019-01-04T01:10:34.418Z,29.50
2019-01-04T01:11:32.298Z,29.40
2019-01-04T01:12:32.367Z,33.60
2019-01-04T01:13:32.236Z,35.20
2019-01-04T01:14:40.162Z,33.60
2019-01-04T01:15:32.173Z,36.70
2019-01-04T01:16:32.191Z,35.20
2019-01-04T01:17:32.130Z,38.40
2019-01-04T01:18:32.079Z,35.60
2019-01-04T01:19:32.155Z,40.10
2019-01-04T01:20:32.006Z,44.40
2019-01-04T01:21:31.979Z,41.50
2019-01-04T01:22:31.944Z,40.80
2019-01-04T01:23:31.904Z,43.70
2019-01-04T01:24:31.866Z,40.30
2019-01-04T01:25:31.854Z,40.50
2019-01-04T01:26:31.823Z,41.90
2019-01-04T01:27:31.785Z,43.20
2019-01-04T01:28:31.765Z,43.60
2019-01-04T01:29:31.730Z,42.50
2019-01-04T01:30:31.717Z,44.20
2019-01-04T01:31:31.647Z,48.30
2019-01-04T01:32:31.645Z,48.90
2019-01-04T01:33:31.596Z,48.40
2019-01-04T01:34:31.627Z,54.80
2019-01-04T01:35:31.528Z,59.80
2019-01-04T01:36:31.552Z,51.60
2019-01-04T01:37:31.452Z,56.40
2019-01-04T01:38:31.444Z,51.90
2019-01-04T01:39:31.384Z,61.30
2019-01-04T01:40:31.458Z,57.90
2019-01-04T01:41:31.342Z,55.00
2019-01-04T01:42:31.385Z,57.60
2019-01-04T01:43:31.251Z,57.20
2019-01-04T01:44:31.314Z,54.30
2019-01-04T01:45:31.193Z,54.80
2019-01-04T01:46:31.230Z,54.30
2019-01-04T01:47:31.121Z,50.40
2019-01-04T01:48:31.114Z,52.20
2019-01-04T01:49:31.063Z,49.20
2019-01-04T01:50:31.118Z,50.00
2019-01-04T01:51:31.009Z,54.40
2019-01-04T01:52:31.047Z,59.30
2019-01-04T01:53:30.945Z,46.50
2019-01-04T01:54:30.949Z,48.50
2019-01-04T01:55:30.883Z,50.90
2019-01-04T01:56:31.877Z,53.10
2019-01-04T01:57:30.821Z,56.60
2019-01-04T01:58:32.826Z,49.50
2019-01-04T01:59:30.750Z,52.10
2019-01-04T02:00:30.772Z,48.40
2019-01-04T02:01:30.683Z,57.10
2019-01-04T02:02:30.681Z,44.20
2019-01-04T02:03:30.622Z,48.90
2019-01-04T02:04:32.646Z,46.80
2019-01-04T02:05:30.540Z,49.10
2019-01-04T02:06:39.208Z,52.40
2019-01-04T02:07:30.474Z,46.00
2019-01-04T02:08:54.203Z,57.90
2019-01-04T02:09:30.425Z,50.30
2019-01-04T02:10:31.495Z,49.50
2019-01-04T02:11:30.366Z,57.00
2019-01-04T02:12:30.357Z,51.50
2019-01-04T02:13:30.301Z,55.00
2019-01-04T02:14:39.281Z,58.50
2019-01-04T02:15:30.227Z,51.50
2019-01-04T02:16:39.210Z,52.70
2019-01-04T02:17:30.204Z,56.40
2019-01-04T02:18:36.735Z,58.70
2019-01-04T02:19:30.100Z,69.10
2019-01-04T02:20:30.124Z,66.60
2019-01-04T02:21:30.054Z,96.70
2019-01-04T02:22:30.019Z,74.20
2019-01-04T02:23:29.982Z,63.50
2019-01-04T02:24:30.034Z,76.10
2019-01-04T02:25:29.966Z,65.90
2019-01-04T02:26:37.718Z,60.40
2019-01-04T02:27:29.838Z,64.50
2019-01-04T02:28:30.895Z,79.10
2019-01-04T02:29:29.793Z,67.00
2019-01-04T02:30:29.766Z,62.40
2019-01-04T02:31:29.706Z,66.10
2019-01-04T02:32:30.698Z,78.20
2019-01-04T02:33:29.643Z,65.50
2019-01-04T02:34:29.710Z,62.70
2019-01-04T02:35:29.579Z,60.30
2019-01-04T02:36:30.635Z,60.60
2019-01-04T02:37:29.521Z,71.90
2019-01-04T02:38:29.521Z,69.40
2019-01-04T02:39:29.470Z,81.70
2019-01-04T02:40:29.505Z,87.60
2019-01-04T02:41:29.384Z,67.10
2019-01-04T02:42:29.429Z,79.30
2019-01-04T02:43:29.300Z,63.20
2019-01-04T02:44:30.356Z,79.50
2019-01-04T02:45:29.249Z,83.40
2019-01-04T02:46:29.242Z,93.40
2019-01-04T02:47:29.187Z,77.00
2019-01-04T03:03:01.790Z,83.50
2019-01-04T03:03:59.917Z,84.00
2019-01-04T03:04:59.954Z,103.10
2019-01-04T03:05:59.860Z,75.70
2019-01-04T03:07:00.917Z,78.70
2019-01-04T03:07:59.797Z,94.40
2019-01-04T03:08:59.770Z,81.80
2019-01-04T03:09:59.744Z,78.10
2019-01-04T04:18:51.481Z,46.60
2019-01-04T04:19:28.052Z,46.90
2019-01-04T05:04:16.194Z,53.40
2019-01-04T05:05:16.030Z,51.70
2019-01-04T05:07:09.452Z,49.40
2019-01-04T05:08:09.516Z,49.00
2019-01-04T05:09:09.362Z,52.90
2019-01-04T05:10:09.341Z,53.20
2019-01-04T05:11:09.327Z,53.50
2019-01-04T05:50:47.910Z,64.30
2019-01-04T05:51:45.634Z,70.40
2019-01-04T06:08:33.356Z,65.20
2019-01-04T06:09:32.732Z,62.50
2019-01-04T06:11:37.076Z,62.60
2019-01-04T06:12:36.315Z,61.80
2019-01-04T06:13:36.327Z,65.70
2019-01-04T06:14:36.997Z,64.30
2019-01-04T06:15:36.340Z,58.40
2019-01-04T06:16:36.175Z,57.90
2019-01-04T06:17:36.163Z,60.50
2019-01-04T06:18:36.137Z,61.50
2019-01-04T06:19:36.101Z,53.50
2019-01-04T06:20:36.054Z,55.40
2019-01-04T06:21:36.048Z,57.80
2019-01-04T06:22:35.989Z,49.60
2019-01-04T06:23:35.955Z,55.50
2019-01-04T06:24:35.926Z,53.60
2019-01-04T06:25:35.909Z,52.70
2019-01-04T06:26:35.848Z,51.10
2019-01-04T06:27:35.836Z,48.70
2019-01-04T06:28:35.802Z,47.70
2019-01-04T06:29:35.754Z,52.40
2019-01-04T06:30:35.737Z,50.70
2019-01-04T06:31:35.706Z,49.90
2019-01-04T06:32:35.665Z,46.30
2019-01-04T06:33:35.735Z,49.40
2019-01-04T06:34:35.589Z,50.90
2019-01-04T06:35:35.651Z,53.10
2019-01-04T06:36:35.556Z,50.70
2019-01-04T06:37:35.550Z,50.40
2019-01-04T06:38:35.478Z,47.50
2019-01-04T06:39:37.520Z,47.40
2019-01-04T06:40:35.419Z,47.60
2019-01-04T06:41:35.489Z,49.80
2019-01-04T06:42:35.361Z,49.60
2019-01-04T06:43:35.376Z,47.50
2019-01-04T06:44:35.267Z,43.80
2019-01-04T06:45:35.312Z,45.40
2019-01-04T06:46:35.211Z,46.30
2019-01-04T06:47:35.204Z,49.30
2019-01-04T06:48:35.147Z,45.90
2019-01-04T06:49:35.221Z,42.90
2019-01-04T06:50:35.084Z,46.40
2019-01-04T06:51:35.139Z,45.90
2019-01-04T06:52:35.024Z,42.80
2019-01-04T06:53:37.082Z,47.30
2019-01-04T06:54:34.958Z,47.20
2019-01-04T06:55:34.963Z,49.00
2019-01-04T06:56:34.882Z,46.40
2019-01-04T06:57:35.872Z,42.90
2019-01-04T06:58:34.816Z,45.80
2019-01-04T06:59:34.875Z,45.70
2019-01-04T07:00:34.760Z,45.80
2019-01-04T07:01:34.795Z,48.00
2019-01-04T07:02:34.699Z,47.50
2019-01-04T07:03:34.700Z,44.40
2019-01-04T07:04:34.629Z,47.40
2019-01-04T07:05:35.736Z,39.40
2019-01-04T07:06:34.579Z,50.50
2019-01-04T07:07:36.632Z,44.90
2019-01-04T07:08:34.501Z,46.80
2019-01-04T07:09:36.567Z,42.90
2019-01-04T07:10:34.444Z,44.30
2019-01-04T07:11:35.434Z,44.60
2019-01-04T07:12:34.393Z,43.80
2019-01-04T07:13:34.424Z,43.90
2019-01-04T07:14:34.314Z,48.10
2019-01-04T07:15:34.333Z,42.30
2019-01-04T07:16:34.220Z,50.50
2019-01-04T07:17:35.224Z,43.80
2019-01-04T07:18:34.185Z,39.00
2019-01-04T07:19:34.168Z,44.10
2019-01-04T07:20:34.121Z,43.10
2019-01-04T07:21:36.125Z,38.20
2019-01-04T07:22:34.071Z,42.30
2019-01-04T07:23:35.146Z,41.80
2019-01-04T07:24:34.002Z,46.20
2019-01-04T07:44:39.613Z,35.60
2019-01-04T07:45:38.039Z,32.10
2019-01-04T07:46:37.939Z,36.10
2019-01-04T07:47:37.800Z,35.90
2019-01-04T07:48:37.868Z,35.00
2019-01-04T07:49:37.900Z,38.00
2019-01-04T07:50:38.778Z,36.60
2019-01-04T07:51:37.678Z,31.80
2019-01-04T07:52:37.703Z,34.80
2019-01-04T07:53:37.697Z,36.10
2019-01-04T07:59:39.960Z,30.30
2019-01-04T08:00:38.175Z,36.30
2019-01-04T08:01:38.239Z,29.10
2019-01-04T08:02:38.998Z,29.80
2019-01-04T08:03:38.077Z,31.20
2019-01-04T08:04:38.048Z,30.50
2019-01-04T08:05:38.010Z,31.60
2019-01-04T08:06:37.980Z,32.40
2019-01-04T08:07:37.948Z,31.50
2019-01-04T08:08:37.924Z,28.10
2019-01-04T08:09:37.879Z,28.60
2019-01-04T08:10:37.886Z,28.00
2019-01-04T08:11:37.817Z,31.00
2019-01-04T08:12:37.800Z,32.00
2019-01-04T08:13:37.766Z,28.50
2019-01-04T08:14:37.723Z,32.80
2019-01-04T08:15:37.687Z,30.90
2019-01-04T08:16:37.661Z,29.80
2019-01-04T08:17:37.627Z,30.90
2019-01-04T08:18:37.597Z,31.10
2019-01-04T08:19:37.649Z,34.60
2019-01-04T08:20:37.533Z,32.20
2019-01-04T08:21:37.499Z,30.20
2019-01-04T08:22:37.457Z,31.50
2019-01-04T08:23:37.434Z,32.30
2019-01-04T08:24:37.485Z,32.10
2019-01-04T08:25:37.391Z,33.80
2019-01-04T08:26:37.342Z,31.70
2019-01-04T08:27:37.318Z,31.20
2019-01-04T08:28:37.266Z,30.90
2019-01-04T08:29:37.232Z,28.60
2019-01-04T08:30:37.212Z,30.20
2019-01-04T08:31:37.207Z,31.00
2019-01-04T08:32:37.174Z,33.90
2019-01-04T08:33:37.184Z,34.70
2019-01-04T08:34:37.103Z,31.20
2019-01-04T08:35:37.092Z,30.10
2019-01-04T08:36:37.046Z,36.30
2019-01-04T08:37:37.031Z,30.20
2019-01-04T08:38:36.972Z,30.80
2019-01-04T08:39:36.939Z,27.70
2019-01-04T08:40:36.912Z,30.80
2019-01-04T08:41:36.881Z,28.70
2019-01-04T08:42:37.449Z,33.80
2019-01-04T08:43:36.808Z,30.30
2019-01-04T08:44:36.794Z,33.80
2019-01-04T08:45:36.846Z,29.80
2019-01-04T08:46:36.699Z,29.80
2019-01-04T08:47:36.740Z,29.20
2019-01-04T08:48:36.664Z,28.40
2019-01-04T08:49:36.635Z,27.00
2019-01-04T08:50:36.548Z,29.70
2019-01-04T08:51:37.575Z,27.40
2019-01-04T08:52:36.477Z,24.30
2019-01-04T08:53:36.556Z,29.10
2019-01-04T08:54:36.435Z,19.50
2019-01-04T08:55:36.463Z,21.70
2019-01-04T08:56:36.425Z,23.50
2019-01-04T08:57:36.451Z,22.00
2019-01-04T08:58:36.405Z,23.50
2019-01-04T08:59:36.301Z,22.90
2019-01-04T09:00:36.397Z,24.40
2019-01-04T09:01:36.235Z,20.80
2019-01-04T09:02:36.209Z,23.90
2019-01-04T09:03:36.184Z,22.30
2019-01-04T09:04:36.218Z,20.60
2019-01-04T09:05:36.150Z,22.40
2019-01-04T09:06:36.155Z,17.70
2019-01-04T09:07:36.044Z,19.50
2019-01-04T09:08:36.064Z,19.50
2019-01-04T09:09:36.140Z,21.90
2019-01-04T09:10:36.083Z,18.40
2019-01-04T09:11:36.037Z,20.30
2019-01-04T09:12:36.002Z,19.90
2019-01-04T09:13:35.847Z,18.80
2019-01-04T09:14:35.946Z,20.20
2019-01-04T09:15:35.791Z,15.40
2019-01-04T09:16:36.874Z,15.40
2019-01-04T09:17:35.728Z,19.80
2019-01-04T09:18:36.701Z,18.20
2019-01-04T09:19:35.622Z,17.60
2019-01-04T09:20:35.719Z,18.60
2019-01-04T09:21:35.550Z,15.00
2019-01-04T09:22:35.620Z,15.60
2019-01-04T09:23:35.494Z,14.50
2019-01-04T09:24:37.586Z,18.10
2019-01-04T09:25:35.455Z,16.40
2019-01-04T09:26:36.475Z,17.00
2019-01-04T09:27:35.382Z,15.70
2019-01-04T09:28:35.347Z,15.90
2019-01-04T09:29:35.286Z,17.00
2019-01-04T09:30:36.285Z,10.10
2019-01-04T09:31:35.243Z,13.60
2019-01-04T09:32:42.078Z,13.80
2019-01-04T09:33:35.165Z,14.90
2019-01-04T09:34:35.263Z,14.30
2019-01-04T09:35:35.106Z,12.90
2019-01-04T09:36:43.021Z,13.40
2019-01-04T09:37:35.028Z,13.00
2019-01-04T09:38:36.085Z,11.60
2019-01-04T09:39:34.960Z,11.30
2019-01-04T09:40:34.976Z,11.70
2019-01-04T09:41:34.883Z,10.90
2019-01-04T09:42:35.889Z,13.50
2019-01-04T09:43:34.825Z,10.70
2019-01-04T09:44:34.935Z,13.50
2019-01-04T09:45:34.765Z,10.10
2019-01-04T09:46:41.546Z,8.70
2019-01-04T09:47:34.716Z,9.80
2019-01-04T09:48:41.567Z,12.30
2019-01-04T09:49:34.648Z,9.30
2019-01-04T09:51:12.525Z,7.70
2019-01-04T09:51:34.569Z,10.40
2019-01-04T09:53:03.508Z,7.40
2019-01-04T09:53:34.500Z,8.50
2019-01-04T09:54:40.993Z,12.10
2019-01-04T09:55:34.430Z,10.90
2019-01-04T10:06:54.339Z,9.10
2019-01-04T10:07:48.144Z,10.00
2019-01-04T10:09:03.855Z,7.90
2019-01-04T10:09:48.048Z,7.60
2019-01-04T10:11:12.821Z,6.80
2019-01-04T10:11:47.985Z,9.60
2019-01-04T10:12:54.809Z,8.60
2019-01-04T10:13:47.910Z,8.20
2019-01-04T10:14:47.964Z,7.60
2019-01-04T10:15:47.868Z,8.30
2019-01-04T10:16:47.816Z,7.00
2019-01-04T10:17:47.797Z,10.10
2019-01-04T10:18:47.794Z,9.60
2019-01-04T10:19:47.736Z,8.30
2019-01-04T10:20:47.697Z,12.40
2019-01-04T10:21:48.753Z,7.60
2019-01-04T10:22:47.633Z,8.80
2019-01-04T10:23:47.630Z,9.50
2019-01-04T10:24:47.569Z,7.90
2019-01-04T10:25:47.640Z,7.30
2019-01-04T10:26:47.509Z,7.50
2019-01-04T10:27:47.544Z,8.80
2019-01-04T10:28:47.470Z,9.60
2019-01-04T10:29:47.457Z,9.10
2019-01-04T10:30:47.381Z,8.40
2019-01-04T10:31:47.357Z,7.50
2019-01-04T10:32:47.359Z,8.10
2019-01-04T10:33:47.274Z,7.60
2019-01-04T10:34:47.250Z,9.10
2019-01-04T10:35:47.303Z,7.00
2019-01-04T10:36:47.183Z,6.60
2019-01-04T10:37:47.204Z,6.50
2019-01-04T10:38:47.124Z,9.50
2019-01-04T10:39:47.071Z,7.70
2019-01-04T10:40:47.128Z,7.90
2019-01-04T10:41:47.010Z,6.50
2019-01-04T10:42:47.024Z,5.90
2019-01-04T10:43:46.974Z,7.30
2019-01-04T10:44:47.987Z,4.80
2019-01-04T10:45:46.893Z,6.50
2019-01-04T10:46:46.977Z,7.90
2019-01-04T10:47:46.846Z,8.00
2019-01-04T10:48:46.818Z,6.80
2019-01-04T10:49:54.393Z,6.50
2019-01-04T10:50:46.732Z,8.20
2019-01-04T10:51:46.785Z,5.10
2019-01-04T10:52:46.787Z,8.00
2019-01-04T10:53:48.756Z,8.80
2019-01-04T10:54:46.604Z,6.90
2019-01-04T10:55:46.612Z,5.80
2019-01-04T10:56:46.532Z,6.40
2019-01-04T10:57:46.520Z,6.90
2019-01-04T10:58:46.455Z,6.90
2019-01-04T10:59:47.487Z,6.70
2019-01-04T11:00:46.511Z,9.40
2019-01-04T11:01:46.441Z,5.80
2019-01-04T11:02:46.323Z,6.80
2019-01-04T11:03:46.371Z,6.30
2019-01-04T11:04:46.259Z,5.50
2019-01-04T11:05:46.260Z,6.90
2019-01-04T11:06:46.224Z,6.30
2019-01-04T11:07:46.157Z,4.70
2019-01-04T11:08:46.211Z,5.00
2019-01-04T11:09:46.092Z,9.00
2019-01-04T11:10:46.054Z,6.50
2019-01-04T11:11:46.162Z,6.80
2019-01-04T11:12:46.013Z,8.80
2019-01-04T11:13:45.968Z,6.60
2019-01-04T11:14:46.096Z,6.30
2019-01-04T11:15:45.902Z,6.00
2019-01-04T11:16:45.884Z,6.50
2019-01-04T11:17:45.865Z,6.70
2019-01-04T11:18:45.804Z,8.50
2019-01-04T11:19:45.790Z,8.80
2019-01-04T11:20:45.798Z,7.90
2019-01-04T11:21:45.750Z,5.40
2019-01-04T11:22:45.669Z,6.60
2019-01-04T11:23:45.655Z,8.30
2019-01-04T11:24:45.612Z,7.80
2019-01-04T11:25:45.668Z,7.30
2019-01-04T11:26:45.602Z,11.50
2019-01-04T11:27:45.522Z,10.40
2019-01-04T11:28:45.535Z,9.60
2019-01-04T11:29:45.438Z,12.40
2019-01-04T11:30:45.528Z,7.80
2019-01-04T11:31:45.410Z,9.50
2019-01-04T11:32:45.434Z,13.00
2019-01-04T11:33:45.327Z,10.60
2019-01-04T11:34:45.288Z,9.60
2019-01-04T11:35:45.251Z,9.90
2019-01-04T11:36:45.245Z,12.50
2019-01-04T11:37:45.268Z,10.60
2019-01-04T11:38:45.148Z,11.50
2019-01-04T11:39:45.179Z,9.90
2019-01-04T11:40:45.093Z,11.20
2019-01-04T11:41:45.211Z,11.20
2019-01-04T11:42:45.019Z,9.90
2019-01-04T11:43:46.103Z,10.00
2019-01-04T11:44:44.971Z,9.80
2019-01-04T11:45:46.022Z,9.80
2019-01-04T11:46:44.898Z,8.90
2019-01-04T11:47:44.910Z,11.70
2019-01-04T11:48:44.831Z,9.60
2019-01-04T11:49:44.935Z,9.50
2019-01-04T11:50:44.763Z,10.90
2019-01-04T11:51:51.431Z,13.40
2019-01-04T11:52:44.705Z,9.70
2019-01-04T11:53:46.863Z,10.40
2019-01-04T11:54:44.617Z,9.50
2019-01-04T11:55:44.697Z,9.10
2019-01-04T11:56:44.593Z,11.50
2019-01-04T11:57:44.715Z,14.60
2019-01-04T11:58:44.494Z,11.60
2019-01-04T11:59:44.479Z,12.00
2019-01-04T12:00:44.539Z,14.80
2019-01-04T12:01:44.438Z,12.20
2019-01-04T12:02:45.477Z,9.40
2019-01-04T12:03:44.340Z,13.30
2019-01-04T12:04:44.349Z,13.60
2019-01-04T12:05:44.259Z,9.90
2019-01-04T12:06:45.285Z,11.90
2019-01-04T12:07:44.208Z,11.30
2019-01-04T12:08:50.833Z,10.90
2019-01-04T12:09:44.166Z,8.70
2019-01-04T12:10:44.216Z,11.30
2019-01-04T12:11:44.101Z,10.00
2019-01-04T12:12:44.118Z,14.70
2019-01-04T12:13:44.032Z,13.90
2019-01-04T12:14:43.989Z,11.40
2019-01-04T12:15:44.013Z,15.40
2019-01-04T12:16:43.922Z,12.40
2019-01-04T12:17:43.929Z,12.00
2019-01-04T12:18:43.854Z,15.10
2019-01-04T12:19:43.841Z,11.80
2019-01-04T12:20:45.491Z,14.90
2019-01-04T12:21:43.771Z,12.70
2019-01-04T12:22:43.733Z,13.20
2019-01-04T12:23:43.685Z,13.20
2019-01-04T12:24:43.662Z,15.80
2019-01-04T12:25:43.624Z,15.90
2019-01-04T12:26:43.611Z,14.10
2019-01-04T12:27:43.563Z,14.30
2019-01-04T12:28:43.515Z,13.10
2019-01-04T12:29:43.608Z,11.50
2019-01-04T12:30:43.472Z,15.50
2019-01-04T12:31:43.541Z,17.60
2019-01-04T12:32:43.422Z,18.70
2019-01-04T12:33:43.435Z,14.40
2019-01-04T12:34:43.325Z,12.10
2019-01-04T12:35:43.309Z,14.80
2019-01-04T12:36:43.260Z,13.10
2019-01-04T12:37:43.255Z,14.40
2019-01-04T12:38:43.201Z,12.90
2019-01-04T12:39:43.228Z,11.10
2019-01-04T12:40:43.131Z,14.10
2019-01-04T12:41:43.109Z,10.60
2019-01-04T12:42:43.081Z,11.40
2019-01-04T12:43:47.874Z,14.40
2019-01-04T12:44:43.017Z,10.20
2019-01-04T12:45:43.011Z,18.60
2019-01-04T12:46:42.942Z,11.90
2019-01-04T12:47:43.006Z,12.20
2019-01-04T12:48:42.872Z,12.10
2019-01-04T12:49:42.845Z,14.60
2019-01-04T12:50:42.835Z,12.50
2019-01-04T12:51:42.780Z,16.30
2019-01-04T12:52:42.750Z,15.60
2019-01-04T12:53:42.762Z,14.80
2019-01-04T12:54:42.745Z,13.40
2019-01-04T12:55:42.652Z,13.00
2019-01-04T12:56:42.665Z,11.20
2019-01-04T12:57:42.602Z,18.00
2019-01-04T12:58:42.554Z,13.10
2019-01-04T12:59:42.530Z,14.70
2019-01-04T13:00:42.487Z,11.40
2019-01-04T13:01:42.457Z,12.70
2019-01-04T13:02:42.409Z,15.40
2019-01-04T13:03:42.387Z,12.70
2019-01-04T13:04:42.360Z,10.50
2019-01-04T13:05:42.338Z,14.20
2019-01-04T13:06:42.287Z,12.90
2019-01-04T13:07:42.258Z,14.90
2019-01-04T13:08:42.234Z,17.20
2019-01-04T13:09:42.201Z,13.30
2019-01-04T13:10:42.181Z,15.20
2019-01-04T13:11:42.144Z,14.00
2019-01-04T13:12:42.103Z,13.10
2019-01-04T13:13:43.808Z,14.60
2019-01-04T13:14:42.078Z,14.20
2019-01-04T13:15:42.006Z,15.40
2019-01-04T13:16:41.947Z,14.60
2019-01-04T13:17:41.941Z,13.80
2019-01-04T13:18:41.892Z,14.00
2019-01-04T13:19:41.863Z,18.10
2019-01-04T13:20:41.844Z,15.60
2019-01-04T13:21:41.921Z,13.40
2019-01-04T13:22:41.773Z,16.30
2019-01-04T13:23:42.855Z,12.90
2019-01-04T13:24:41.762Z,16.30
2019-01-04T13:25:43.811Z,13.00
2019-01-04T13:26:41.640Z,14.10
2019-01-04T13:27:41.689Z,14.20
2019-01-04T13:28:41.577Z,13.90
2019-01-04T13:29:41.666Z,15.20
2019-01-04T13:30:41.516Z,15.80
2019-01-04T13:31:41.598Z,13.70
2019-01-04T13:32:41.447Z,17.00
2019-01-04T13:33:41.493Z,13.20
2019-01-04T13:34:42.688Z,15.20
2019-01-04T13:35:42.444Z,15.50
2019-01-04T13:36:41.325Z,15.20
2019-01-04T13:37:41.437Z,18.30
2019-01-04T13:38:41.248Z,20.30
2019-01-04T13:39:41.332Z,16.00
2019-01-04T13:40:41.199Z,18.80
2019-01-04T13:41:41.163Z,17.50
2019-01-04T13:42:41.124Z,12.50
2019-01-04T13:43:41.172Z,14.70
2019-01-04T13:44:41.048Z,14.20
2019-01-04T13:45:41.026Z,15.20
2019-01-04T13:46:41.076Z,14.80
2019-01-04T13:47:40.960Z,16.10
2019-01-04T13:48:40.924Z,13.90
2019-01-04T13:49:40.903Z,18.10
2019-01-04T13:50:40.905Z,16.60
2019-01-04T13:51:40.824Z,15.20
2019-01-04T13:52:40.855Z,18.80
2019-01-04T13:53:40.755Z,14.30
2019-01-04T13:54:40.760Z,13.20
2019-01-04T13:55:40.700Z,14.10
2019-01-04T13:56:40.684Z,16.80
2019-01-04T13:57:40.645Z,16.80
2019-01-04T13:58:40.613Z,16.70
2019-01-04T13:59:40.582Z,21.20
2019-01-04T14:00:40.541Z,17.60
2019-01-04T14:01:40.565Z,14.20
2019-01-04T14:02:40.480Z,15.70
2019-01-04T14:03:40.446Z,17.80
2019-01-04T14:04:40.420Z,15.60
2019-01-04T14:05:40.498Z,15.70
2019-01-04T14:06:40.365Z,18.60
2019-01-04T14:07:40.386Z,16.20
2019-01-04T14:08:40.282Z,20.90
2019-01-04T14:09:40.242Z,15.70
2019-01-04T14:10:40.216Z,16.20
2019-01-04T14:11:40.171Z,14.40
2019-01-04T14:12:40.151Z,13.30
2019-01-04T14:13:40.138Z,21.90
2019-01-04T14:14:40.078Z,16.70
2019-01-04T14:15:40.056Z,19.70
2019-01-04T14:16:40.064Z,16.00
2019-01-04T14:17:39.995Z,16.90
2019-01-04T14:18:40.082Z,17.80
2019-01-04T14:19:39.926Z,21.60
2019-01-04T14:20:39.973Z,22.30
2019-01-04T14:21:39.850Z,18.90
2019-01-04T14:22:39.818Z,21.10
2019-01-04T14:23:39.887Z,15.70
2019-01-04T14:24:39.750Z,21.50
2019-01-04T14:25:39.807Z,19.20
2019-01-04T14:26:39.712Z,16.60
2019-01-04T14:27:39.713Z,18.40
2019-01-04T14:28:39.632Z,24.60
2019-01-04T14:29:39.638Z,17.10
2019-01-04T14:30:39.555Z,16.50
2019-01-04T14:31:39.643Z,16.60
2019-01-04T14:32:39.494Z,18.80
2019-01-04T14:33:39.555Z,18.60
2019-01-04T14:34:39.423Z,19.60
2019-01-04T14:35:39.469Z,17.00
2019-01-04T14:36:39.370Z,18.60
2019-01-04T14:37:39.384Z,13.50
2019-01-04T14:38:39.306Z,18.40
2019-01-04T14:39:39.389Z,15.10
2019-01-04T14:40:39.257Z,22.10
2019-01-04T14:41:39.301Z,16.90
2019-01-04T14:42:39.201Z,19.00
2019-01-04T14:43:39.196Z,18.50
2019-01-04T14:44:39.220Z,15.70
2019-01-04T14:45:39.083Z,23.30
2019-01-04T14:46:39.134Z,15.30
2019-01-04T14:47:39.025Z,17.20
2019-01-04T14:48:39.040Z,14.60
2019-01-04T14:49:38.952Z,20.60
2019-01-04T14:50:38.994Z,18.00
2019-01-04T14:51:38.898Z,18.20
2019-01-04T14:52:38.940Z,15.30
2019-01-04T14:53:38.811Z,17.30
2019-01-04T14:54:38.821Z,12.10
2019-01-04T14:55:38.750Z,15.00
2019-01-04T14:56:38.749Z,17.00
2019-01-04T14:57:38.682Z,17.50
2019-01-04T14:58:39.681Z,18.90
2019-01-04T14:59:38.620Z,16.80
2019-01-04T15:00:38.679Z,21.10
2019-01-04T15:01:38.559Z,19.70
2019-01-04T15:02:38.621Z,16.60
2019-01-04T15:03:38.500Z,20.10
2019-01-04T15:04:38.497Z,17.90
2019-01-04T15:05:38.434Z,19.00
2019-01-04T15:06:40.520Z,17.20
2019-01-04T15:07:38.367Z,19.10
2019-01-04T15:08:38.429Z,20.70
2019-01-04T15:09:38.312Z,17.70
2019-01-04T15:10:38.360Z,17.10
2019-01-04T15:11:38.233Z,15.30
2019-01-04T15:12:38.281Z,17.80
2019-01-04T15:13:38.188Z,15.80
2019-01-04T15:14:38.249Z,19.00
2019-01-04T15:15:38.127Z,18.50
2019-01-04T15:16:38.183Z,18.30
2019-01-04T15:17:38.085Z,16.20
2019-01-04T15:18:39.133Z,18.30
2019-01-04T15:19:37.999Z,14.90
2019-01-04T15:20:38.012Z,20.50
2019-01-04T15:21:37.916Z,21.10
2019-01-04T15:22:37.886Z,18.20
2019-01-04T15:23:37.919Z,17.30
2019-01-04T15:24:37.825Z,20.60
2019-01-04T15:25:37.866Z,23.40
2019-01-04T15:26:37.756Z,22.50
2019-01-04T15:27:37.743Z,20.50
2019-01-04T15:28:37.691Z,21.40
2019-01-04T15:29:37.747Z,18.10
2019-01-04T15:30:37.634Z,19.10
2019-01-04T15:31:44.358Z,17.50
2019-01-04T15:32:37.581Z,18.70
2019-01-04T15:33:52.365Z,20.00
2019-01-04T15:34:37.526Z,17.30
2019-01-04T15:35:37.502Z,20.70
2019-01-04T15:36:37.432Z,21.80
2019-01-04T15:37:37.424Z,19.40
2019-01-04T15:38:37.391Z,21.90
2019-01-04T15:39:37.347Z,21.30
2019-01-04T15:40:37.335Z,22.90
2019-01-04T15:41:37.279Z,21.20
2019-01-04T15:42:37.246Z,23.00
2019-01-04T15:43:37.262Z,16.20
2019-01-04T15:44:37.193Z,21.20
2019-01-04T15:45:43.866Z,22.70
2019-01-04T15:46:37.102Z,20.00
2019-01-04T15:47:37.106Z,16.90
2019-01-04T15:48:37.043Z,19.10
2019-01-04T15:49:37.028Z,21.90
2019-01-04T15:50:36.973Z,24.20
2019-01-04T15:51:36.966Z,24.50
2019-01-04T15:52:36.895Z,21.70
2019-01-04T15:53:36.897Z,18.60
2019-01-04T15:54:36.845Z,20.70
2019-01-04T15:55:37.853Z,22.30
2019-01-04T15:56:36.786Z,22.10
2019-01-04T15:57:38.784Z,25.70
2019-01-04T15:58:36.720Z,24.40
2019-01-04T15:59:36.681Z,24.30
2019-01-04T16:00:36.787Z,24.00
2019-01-04T16:01:52.375Z,22.30
2019-01-04T16:02:36.607Z,27.30
2019-01-04T16:03:36.577Z,19.30
2019-01-04T16:04:36.509Z,23.40
2019-01-04T16:05:36.485Z,21.00
2019-01-04T16:06:36.464Z,21.50
2019-01-04T16:07:37.441Z,26.60
2019-01-04T16:08:36.390Z,21.00
2019-01-04T16:09:38.366Z,21.70
2019-01-04T16:10:36.323Z,20.40
2019-01-04T16:11:36.309Z,20.50
2019-01-04T16:12:36.255Z,20.60
2019-01-04T16:13:36.245Z,21.40
2019-01-04T16:14:36.203Z,20.20
2019-01-04T16:15:36.183Z,23.20
2019-01-04T16:16:36.127Z,20.40
2019-01-04T16:17:37.109Z,21.70
2019-01-04T16:18:36.078Z,20.60
2019-01-04T16:19:36.055Z,28.00
2019-01-04T16:20:36.033Z,18.90
2019-01-04T16:21:37.994Z,16.60
2019-01-04T16:22:35.950Z,17.70
2019-01-04T16:23:36.914Z,18.00
2019-01-04T16:24:35.862Z,18.80
2019-01-04T16:25:36.864Z,20.70
2019-01-04T16:26:35.795Z,20.40
2019-01-04T16:27:35.801Z,17.60
2019-01-04T16:28:35.866Z,21.60
2019-01-04T16:29:35.966Z,20.80
2019-01-04T16:30:36.940Z,18.20
2019-01-04T16:31:35.645Z,22.60